CheckWX is a tool to help pilots better visualize weather data.  It is not intended as a substitute for an official pre-flight weather briefing.

09:37:00 UTC

EGXP METAR
RAF Scampton Airport
Scampton, United Kingdom
Current

47 mins ago

EGXP 220850Z 24008KT CAVOK 10/07 Q1019 BLU
Observed
May-22 @ 08:50 UTC
Wind
  • 240° at 8 KTS
Visibility
10,000+ meters
Flight Rules
VFR
Cloud Levels
  • Clear skies
Temperature
10°C / 50°F
Dewpoint
C / 45°F
Humidity
82%
Altimeter
30.09" Hg
Pressure
1018.92 hPa
Previous

2 hours ago

EGXP 220750Z 23007KT CAVOK 09/07 Q1019 BLU
Observed
May-22 @ 07:50 UTC
Wind
  • 230° at 7 KTS
Visibility
10,000+ meters
Flight Rules
VFR
Cloud Levels
  • Clear skies
Temperature
C / 48°F
Dewpoint
C / 45°F
Humidity
87%
Altimeter
30.09" Hg
Pressure
1018.92 hPa
Previous

3 hours ago

EGXP 220650Z 24008KT CAVOK 09/06 Q1019 BLU
Observed
May-22 @ 06:50 UTC
Wind
  • 240° at 8 KTS
Visibility
10,000+ meters
Flight Rules
VFR
Cloud Levels
  • Clear skies
Temperature
C / 48°F
Dewpoint
C / 43°F
Humidity
82%
Altimeter
30.09" Hg
Pressure
1018.92 hPa